createdAt,value
2019-04-26T00:01:41.164Z,1.87
2019-04-26T00:03:44.417Z,1.80
2019-04-26T00:05:45.936Z,1.67
2019-04-26T00:07:47.162Z,1.80
2019-04-26T00:09:48.702Z,1.80
2019-04-26T00:12:15.076Z,1.90
2019-04-26T00:14:44.893Z,1.50
2019-04-26T00:17:05.401Z,1.73
2019-04-26T00:19:07.025Z,1.97
2019-04-26T00:21:09.602Z,1.80
2019-04-26T00:23:12.064Z,1.80
2019-04-26T00:25:14.380Z,1.90
2019-04-26T00:27:16.691Z,1.80
2019-04-26T00:29:18.991Z,2.00
2019-04-26T00:31:21.367Z,1.90
2019-04-26T00:33:22.761Z,2.13
2019-04-26T00:35:23.976Z,1.93
2019-04-26T00:37:25.193Z,2.10
2019-04-26T00:39:26.456Z,2.10
2019-04-26T00:41:28.004Z,2.20
2019-04-26T00:43:29.228Z,1.90
2019-04-26T00:45:30.820Z,1.90
2019-04-26T00:47:32.048Z,2.10
2019-04-26T00:49:42.999Z,2.00
2019-04-26T00:51:36.973Z,1.80
2019-04-26T00:53:38.208Z,2.07
2019-04-26T00:55:39.764Z,2.00
2019-04-26T00:57:40.976Z,2.30
2019-04-26T00:59:42.485Z,2.10
2019-04-26T01:01:47.956Z,2.00
2019-04-26T01:03:49.447Z,2.20
2019-04-26T01:05:59.874Z,2.10
2019-04-26T01:07:55.164Z,2.40
2019-04-26T01:09:56.404Z,2.47
2019-04-26T01:11:57.624Z,2.13
2019-04-26T01:13:59.148Z,2.30
2019-04-26T01:16:00.715Z,2.10
2019-04-26T01:18:01.934Z,2.20
2019-04-26T01:20:03.305Z,2.20
2019-04-26T01:22:06.452Z,2.40
2019-04-26T01:24:08.043Z,2.30
2019-04-26T01:26:23.254Z,2.60
2019-04-26T01:28:37.355Z,2.07
2019-04-26T01:30:38.610Z,2.43
2019-04-26T01:32:40.449Z,2.97
2019-04-26T01:34:42.315Z,2.17
2019-04-26T01:36:43.904Z,2.47
2019-04-26T01:38:45.331Z,2.30
2019-04-26T01:40:49.764Z,2.33
2019-04-26T01:43:16.618Z,2.50
2019-04-26T01:45:32.279Z,2.20
2019-04-26T01:47:33.618Z,2.40
2019-04-26T01:49:34.832Z,2.37
2019-04-26T01:51:37.459Z,2.30
2019-04-26T01:53:38.677Z,2.50
2019-04-26T01:55:40.208Z,2.30
2019-04-26T01:57:41.744Z,2.60
2019-04-26T01:59:45.777Z,2.37
2019-04-26T02:02:15.752Z,2.40
2019-04-26T02:04:17.088Z,2.37
2019-04-26T02:06:25.435Z,2.10
2019-04-26T02:08:21.931Z,2.30
2019-04-26T02:10:25.204Z,2.30
2019-04-26T02:12:26.766Z,2.50
2019-04-26T02:14:28.981Z,2.20
2019-04-26T02:16:31.141Z,2.60
2019-04-26T02:18:33.541Z,2.20
2019-04-26T02:20:48.816Z,2.30
2019-04-26T02:23:04.053Z,2.20
2019-04-26T02:25:05.289Z,2.37
2019-04-26T02:27:14.906Z,2.60
2019-04-26T02:29:17.034Z,2.73
2019-04-26T02:31:18.286Z,2.30
2019-04-26T02:33:19.493Z,2.50
2019-04-26T02:35:20.974Z,2.57
2019-04-26T02:37:22.207Z,2.37
2019-04-26T02:39:26.319Z,2.50
2019-04-26T02:41:29.928Z,2.70
2019-04-26T02:43:32.119Z,2.37
2019-04-26T02:45:58.985Z,2.40
2019-04-26T02:48:18.828Z,2.67
2019-04-26T02:50:24.848Z,2.90
2019-04-26T02:52:31.397Z,2.80
2019-04-26T02:54:45.908Z,2.50
2019-04-26T02:56:47.129Z,2.60
2019-04-26T02:59:04.195Z,2.50
2019-04-26T03:01:05.418Z,2.87
2019-04-26T03:03:06.963Z,3.30
2019-04-26T03:05:08.182Z,2.70
2019-04-26T03:07:17.776Z,2.83
2019-04-26T03:09:18.993Z,2.80
2019-04-26T03:11:20.517Z,2.40
2019-04-26T03:13:34.270Z,2.60
2019-04-26T03:15:57.350Z,2.63
2019-04-26T03:18:33.054Z,2.57
2019-04-26T03:20:36.320Z,2.70
2019-04-26T03:22:42.693Z,2.90
2019-04-26T03:24:48.856Z,3.07
2019-04-26T03:26:56.178Z,2.83
2019-04-26T03:29:06.337Z,2.67
2019-04-26T03:31:15.625Z,2.90
2019-04-26T03:33:42.079Z,2.90
2019-04-26T03:36:08.558Z,2.90
2019-04-26T03:38:22.530Z,2.70
2019-04-26T03:40:44.615Z,2.90
2019-04-26T03:42:52.812Z,2.80
2019-04-26T03:45:15.662Z,2.90
2019-04-26T03:47:19.060Z,2.97
2019-04-26T03:49:39.874Z,2.90
2019-04-26T03:52:00.333Z,2.90
2019-04-26T03:54:04.869Z,2.90
2019-04-26T03:56:28.271Z,3.00
2019-04-26T03:58:53.514Z,3.00
2019-04-26T04:00:58.756Z,2.90
2019-04-26T04:03:15.854Z,3.00
2019-04-26T04:05:29.766Z,2.73
2019-04-26T04:07:39.450Z,2.83
2019-04-26T04:09:34.452Z,3.00
2019-04-26T04:11:49.064Z,3.00
2019-04-26T04:13:55.965Z,3.00
2019-04-26T04:15:57.358Z,2.97
2019-04-26T04:17:59.859Z,2.90
2019-04-26T04:20:25.463Z,2.70
2019-04-26T04:22:29.030Z,3.10
2019-04-26T04:24:32.124Z,2.80
2019-04-26T04:26:48.158Z,2.63
2019-04-26T04:29:17.371Z,2.93
2019-04-26T04:31:23.284Z,3.00
2019-04-26T04:33:31.291Z,3.20
2019-04-26T04:35:32.822Z,3.10
2019-04-26T04:37:56.345Z,3.30
2019-04-26T04:39:53.298Z,3.40
2019-04-26T04:42:02.061Z,3.33
2019-04-26T04:44:14.183Z,3.33
2019-04-26T04:46:54.026Z,3.60
2019-04-26T04:49:07.665Z,3.40
2019-04-26T04:51:13.746Z,3.30
2019-04-26T04:53:38.050Z,3.20
2019-04-26T04:56:01.949Z,3.33
2019-04-26T04:58:06.698Z,3.50
2019-04-26T05:00:19.165Z,3.40
2019-04-26T05:02:38.224Z,2.83
2019-04-26T05:04:45.244Z,3.70
2019-04-26T05:07:07.566Z,3.53
2019-04-26T05:09:09.440Z,3.40
2019-04-26T05:11:14.025Z,3.57
2019-04-26T05:13:24.620Z,3.60
2019-04-26T05:15:55.517Z,3.33
2019-04-26T05:18:03.124Z,3.40
2019-04-26T05:20:21.146Z,2.87
2019-04-26T05:22:55.420Z,3.10
2019-04-26T05:25:40.466Z,3.20
2019-04-26T05:27:57.974Z,3.13
2019-04-26T05:30:19.709Z,3.10
2019-04-26T05:32:43.589Z,3.13
2019-04-26T05:34:49.092Z,3.03
2019-04-26T05:37:03.050Z,3.30
2019-04-26T05:39:24.614Z,3.10
2019-04-26T05:41:43.430Z,3.00
2019-04-26T05:43:55.993Z,2.80
2019-04-26T05:46:28.553Z,3.30
2019-04-26T05:48:47.977Z,3.20
2019-04-26T05:51:16.113Z,2.90
2019-04-26T05:54:01.873Z,3.07
2019-04-26T05:56:20.888Z,3.13
2019-04-26T05:58:26.722Z,3.30
2019-04-26T06:00:41.297Z,3.50
2019-04-26T06:03:15.010Z,3.43
2019-04-26T06:05:34.925Z,3.37
2019-04-26T06:08:05.644Z,3.07
2019-04-26T06:10:25.255Z,3.40
2019-04-26T06:12:34.644Z,3.00
2019-04-26T06:14:46.349Z,3.23
2019-04-26T06:17:19.778Z,3.23
2019-04-26T06:19:29.309Z,3.20
2019-04-26T06:21:32.241Z,3.00
2019-04-26T06:23:37.977Z,3.33
2019-04-26T06:25:47.032Z,3.30
2019-04-26T06:27:56.182Z,3.10
2019-04-26T06:30:13.968Z,3.00
2019-04-26T06:32:16.791Z,3.20
2019-04-26T06:34:32.922Z,3.07
2019-04-26T06:36:50.226Z,3.27
2019-04-26T06:39:13.224Z,3.20
2019-04-26T06:42:00.726Z,2.80
2019-04-26T06:44:06.017Z,2.97
2019-04-26T06:46:36.369Z,2.97
2019-04-26T06:49:04.209Z,3.20
2019-04-26T06:51:23.560Z,3.40
2019-04-26T06:53:16.889Z,3.60
2019-04-26T06:55:27.242Z,3.70
2019-04-26T06:58:07.178Z,4.70
2019-04-26T07:00:14.491Z,4.57
2019-04-26T07:02:18.080Z,4.50
2019-04-26T07:04:38.013Z,4.77
2019-04-26T07:06:48.011Z,4.60
2019-04-26T07:08:57.476Z,5.90
2019-04-26T07:11:19.483Z,5.80
2019-04-26T07:13:41.857Z,5.23
2019-04-26T07:15:46.847Z,5.87
2019-04-26T07:18:16.992Z,5.40
2019-04-26T07:20:24.967Z,5.50
2019-04-26T07:22:46.680Z,6.33
2019-04-26T07:25:11.085Z,6.40
2019-04-26T07:27:16.400Z,7.30
2019-04-26T07:29:29.267Z,7.10
2019-04-26T07:31:36.117Z,7.20
2019-04-26T07:33:56.600Z,6.97
2019-04-26T07:36:07.574Z,6.60
2019-04-26T07:39:14.783Z,6.00
2019-04-26T07:41:22.977Z,5.40
2019-04-26T07:43:37.717Z,5.37
2019-04-26T07:46:00.145Z,4.90
2019-04-26T07:48:18.948Z,5.33
2019-04-26T07:50:27.346Z,4.40
2019-04-26T07:52:48.224Z,4.43
2019-04-26T07:55:08.633Z,4.30
2019-04-26T07:57:42.230Z,4.30
2019-04-26T08:00:11.150Z,4.23
2019-04-26T08:02:45.365Z,4.10
2019-04-26T08:04:49.922Z,4.73
2019-04-26T08:06:55.499Z,5.20
2019-04-26T08:08:58.872Z,5.23
2019-04-26T08:11:06.114Z,5.33
2019-04-26T08:13:10.048Z,4.97
2019-04-26T08:15:30.737Z,5.20
2019-04-26T08:17:43.572Z,5.20
2019-04-26T08:19:49.296Z,5.60
2019-04-26T08:21:50.693Z,5.10
2019-04-26T08:24:09.964Z,5.20
2019-04-26T08:26:11.889Z,4.57
2019-04-26T08:28:14.256Z,4.53
2019-04-26T08:30:19.303Z,4.60
2019-04-26T08:32:21.764Z,3.87
2019-04-26T08:34:28.511Z,4.17
2019-04-26T08:36:28.707Z,3.90
2019-04-26T08:38:30.136Z,3.50
2019-04-26T08:40:31.552Z,3.17
2019-04-26T08:42:40.477Z,3.60
2019-04-26T08:44:54.013Z,3.30
2019-04-26T08:47:20.977Z,3.03
2019-04-26T08:49:35.074Z,4.60
2019-04-26T08:51:36.768Z,2.77
2019-04-26T08:53:38.010Z,3.07
2019-04-26T08:55:39.476Z,2.60
2019-04-26T08:57:40.916Z,2.60
2019-04-26T08:59:43.998Z,2.50
2019-04-26T09:01:51.685Z,2.43
2019-04-26T09:03:55.908Z,2.40
2019-04-26T09:06:19.645Z,2.40
2019-04-26T09:08:21.994Z,2.20
2019-04-26T09:10:24.376Z,2.00
2019-04-26T09:12:26.126Z,2.30
2019-04-26T09:14:28.648Z,2.20
2019-04-26T09:16:30.110Z,2.67
2019-04-26T09:18:42.320Z,2.43
2019-04-26T09:20:38.586Z,2.40
2019-04-26T09:22:56.672Z,2.20
2019-04-26T09:25:07.620Z,2.10
2019-04-26T09:27:37.585Z,2.50
2019-04-26T09:29:53.352Z,2.50
2019-04-26T09:31:57.532Z,2.53
2019-04-26T09:34:01.865Z,3.00
2019-04-26T09:36:03.100Z,2.60
2019-04-26T09:38:04.332Z,2.80
2019-04-26T09:40:10.378Z,2.80
2019-04-26T09:42:24.864Z,2.50
2019-04-26T09:44:43.926Z,2.53
2019-04-26T09:46:52.913Z,2.60
2019-04-26T09:49:13.758Z,2.67
2019-04-26T09:51:15.781Z,2.37
2019-04-26T09:53:18.264Z,2.90
2019-04-26T09:55:19.488Z,3.17
2019-04-26T09:57:20.705Z,2.80
2019-04-26T09:59:22.237Z,2.90
2019-04-26T10:01:26.006Z,2.80
2019-04-26T10:03:27.271Z,2.33
2019-04-26T10:05:28.507Z,2.70
2019-04-26T10:07:33.350Z,2.87
2019-04-26T10:09:33.231Z,2.53
2019-04-26T10:11:43.625Z,2.80
2019-04-26T10:13:55.676Z,2.50
2019-04-26T10:16:16.876Z,2.80
2019-04-26T10:18:20.456Z,2.30
2019-04-26T10:20:21.456Z,2.50
2019-04-26T10:22:24.396Z,2.50
2019-04-26T10:24:25.650Z,2.67
2019-04-26T10:26:28.160Z,2.50
2019-04-26T10:28:29.992Z,2.83
2019-04-26T10:30:31.229Z,2.90
2019-04-26T10:32:32.447Z,2.70
2019-04-26T10:34:33.685Z,2.60
2019-04-26T10:36:35.020Z,2.37
2019-04-26T10:38:36.248Z,2.30
2019-04-26T10:40:37.481Z,2.60
2019-04-26T10:42:38.689Z,2.60
2019-04-26T10:44:41.104Z,2.40
2019-04-26T10:46:54.843Z,2.40
2019-04-26T10:48:49.874Z,2.40
2019-04-26T10:50:49.184Z,2.60
2019-04-26T10:52:55.808Z,2.60
2019-04-26T10:55:19.581Z,3.20
2019-04-26T10:57:28.421Z,2.70
2019-04-26T10:59:55.523Z,3.10
2019-04-26T11:01:56.780Z,2.40
2019-04-26T11:03:57.996Z,2.40
2019-04-26T11:05:59.240Z,2.47
2019-04-26T11:08:00.482Z,2.30
2019-04-26T11:10:03.013Z,2.23
2019-04-26T11:12:05.404Z,2.40
2019-04-26T11:14:06.623Z,2.30
2019-04-26T11:16:08.947Z,2.43
2019-04-26T11:18:10.368Z,2.53
2019-04-26T11:20:12.069Z,2.03
2019-04-26T11:22:13.412Z,2.30
2019-04-26T11:24:15.236Z,2.30
2019-04-26T11:26:17.787Z,2.07
2019-04-26T11:28:21.359Z,2.20
2019-04-26T11:30:22.808Z,2.00
2019-04-26T11:32:24.291Z,1.80
2019-04-26T11:34:25.868Z,2.13
2019-04-26T11:36:27.546Z,2.80
2019-04-26T11:38:31.354Z,2.50
2019-04-26T11:40:31.873Z,2.30
2019-04-26T11:42:33.418Z,2.07
2019-04-26T11:44:34.940Z,2.10
2019-04-26T11:46:44.738Z,2.10
2019-04-26T11:48:39.704Z,2.13
2019-04-26T11:50:40.915Z,2.43
2019-04-26T11:52:42.158Z,2.30
2019-04-26T11:54:43.380Z,2.50
2019-04-26T11:56:44.952Z,3.00
2019-04-26T11:58:46.167Z,2.73
2019-04-26T12:00:52.796Z,2.83
2019-04-26T12:02:54.036Z,2.90
2019-04-26T12:05:13.588Z,2.57
2019-04-26T12:07:20.949Z,2.90
2019-04-26T12:09:42.984Z,3.03
2019-04-26T12:11:50.976Z,3.07
2019-04-26T12:13:47.940Z,2.90
2019-04-26T12:15:49.516Z,3.30
2019-04-26T12:17:58.414Z,3.50
2019-04-26T12:19:54.128Z,2.93
2019-04-26T12:21:55.699Z,2.90
2019-04-26T12:23:56.941Z,3.43
2019-04-26T12:25:58.464Z,3.10
2019-04-26T12:28:01.909Z,3.30
2019-04-26T12:30:02.932Z,2.70
2019-04-26T12:32:04.172Z,2.20
2019-04-26T12:34:05.415Z,2.50
2019-04-26T12:36:09.571Z,2.80
2019-04-26T12:38:10.128Z,2.70
2019-04-26T12:40:12.368Z,2.90
2019-04-26T12:42:13.876Z,2.83
2019-04-26T12:44:15.801Z,3.20
2019-04-26T12:46:27.275Z,3.10
2019-04-26T12:48:27.276Z,3.00
2019-04-26T12:50:29.536Z,3.00
2019-04-26T12:52:32.536Z,3.00
2019-04-26T12:54:34.069Z,2.30
2019-04-26T12:56:35.288Z,2.50
2019-04-26T12:58:36.877Z,2.90
2019-04-26T13:00:38.911Z,2.70
2019-04-26T13:02:40.722Z,2.80
2019-04-26T13:04:44.493Z,3.10
2019-04-26T13:06:50.688Z,2.50
2019-04-26T13:08:53.262Z,2.53
2019-04-26T13:11:23.937Z,2.60
2019-04-26T13:13:51.079Z,2.70
2019-04-26T13:16:21.745Z,2.70
2019-04-26T13:18:21.557Z,2.80
2019-04-26T13:20:24.370Z,2.73
2019-04-26T13:22:26.207Z,3.00
2019-04-26T13:24:27.722Z,3.17
2019-04-26T13:26:30.285Z,2.70
2019-04-26T13:28:32.078Z,2.90
2019-04-26T13:30:33.659Z,2.37
2019-04-26T13:32:34.877Z,2.40
2019-04-26T13:34:37.236Z,2.80
2019-04-26T13:36:39.513Z,3.13
2019-04-26T13:38:43.549Z,2.70
2019-04-26T13:40:43.909Z,2.43
2019-04-26T13:42:47.385Z,2.30
2019-04-26T13:44:56.403Z,2.90
2019-04-26T13:47:09.592Z,3.23
2019-04-26T13:49:23.301Z,2.83
2019-04-26T13:51:25.776Z,2.57
2019-04-26T13:53:27.013Z,2.30
2019-04-26T13:55:29.398Z,2.47
2019-04-26T13:57:31.732Z,2.60
2019-04-26T13:59:32.968Z,2.40
2019-04-26T14:01:34.483Z,2.80
2019-04-26T14:03:35.702Z,2.83
2019-04-26T14:05:37.137Z,3.20
2019-04-26T14:07:38.396Z,3.63
2019-04-26T14:09:39.652Z,3.33
2019-04-26T14:11:40.873Z,3.50
2019-04-26T14:13:42.097Z,2.70
2019-04-26T14:15:48.218Z,2.87
2019-04-26T14:17:46.780Z,3.10
2019-04-26T14:19:49.426Z,2.60
2019-04-26T14:21:53.541Z,2.67
2019-04-26T14:24:13.265Z,2.50
2019-04-26T14:26:17.932Z,2.90
2019-04-26T14:28:20.377Z,2.40
2019-04-26T14:30:22.635Z,2.80
2019-04-26T14:32:24.301Z,2.90
2019-04-26T14:34:25.885Z,2.80
2019-04-26T14:36:27.701Z,2.80
2019-04-26T14:38:35.661Z,2.70
2019-04-26T14:40:32.979Z,2.93
2019-04-26T14:42:42.006Z,2.90
2019-04-26T14:44:48.861Z,2.80
2019-04-26T14:46:48.577Z,3.00
2019-04-26T14:48:44.764Z,3.23
2019-04-26T14:50:47.250Z,2.80
2019-04-26T14:52:48.524Z,3.13
2019-04-26T14:54:49.740Z,3.03
2019-04-26T14:56:52.269Z,3.30
2019-04-26T14:58:53.921Z,3.83
2019-04-26T15:00:58.593Z,2.87
2019-04-26T15:03:23.984Z,2.40
2019-04-26T15:05:30.152Z,2.50
2019-04-26T15:07:32.501Z,2.77
2019-04-26T15:09:36.646Z,3.13
2019-04-26T15:11:37.980Z,2.77
2019-04-26T15:13:40.486Z,2.40
2019-04-26T15:15:45.762Z,2.10
2019-04-26T15:17:45.816Z,2.63
2019-04-26T15:19:47.332Z,2.70
2019-04-26T15:21:48.780Z,3.03
2019-04-26T15:23:50.009Z,2.90
2019-04-26T15:25:52.810Z,2.10
2019-04-26T15:27:54.485Z,1.90
2019-04-26T15:29:57.291Z,2.00
2019-04-26T15:31:58.849Z,1.70
2019-04-26T15:34:00.099Z,1.77
2019-04-26T15:36:02.226Z,2.00
2019-04-26T15:38:04.181Z,2.30
2019-04-26T15:40:13.862Z,2.83
2019-04-26T15:42:37.396Z,2.00
2019-04-26T15:45:04.636Z,2.00
2019-04-26T15:47:28.158Z,2.20
2019-04-26T15:49:36.705Z,2.10
2019-04-26T15:51:37.868Z,2.27
2019-04-26T15:53:39.094Z,2.00
2019-04-26T15:55:41.615Z,2.20
2019-04-26T15:57:43.453Z,2.20
2019-04-26T15:59:45.004Z,2.13
2019-04-26T16:01:48.964Z,2.00
2019-04-26T16:03:49.384Z,2.00
2019-04-26T16:05:50.885Z,2.27
2019-04-26T16:07:52.987Z,2.00
2019-04-26T16:09:57.381Z,1.70
2019-04-26T16:11:58.057Z,2.00
2019-04-26T16:13:59.614Z,2.10
2019-04-26T16:16:02.073Z,2.10
2019-04-26T16:18:04.341Z,2.23
2019-04-26T16:20:06.038Z,1.93
2019-04-26T16:22:07.256Z,1.93
2019-04-26T16:24:08.506Z,2.10
2019-04-26T16:26:12.771Z,2.10
2019-04-26T16:28:47.787Z,2.20
2019-04-26T16:31:00.325Z,2.30
2019-04-26T16:33:13.423Z,2.50
2019-04-26T16:35:18.384Z,2.20
2019-04-26T16:37:21.852Z,2.13
2019-04-26T16:39:23.227Z,2.20
2019-04-26T16:41:27.283Z,2.20
2019-04-26T16:43:39.491Z,2.20
2019-04-26T16:45:32.757Z,2.10
2019-04-26T16:47:35.408Z,2.30
2019-04-26T16:49:41.976Z,2.17
2019-04-26T16:51:40.299Z,2.50
2019-04-26T16:53:58.819Z,2.00
2019-04-26T16:55:52.306Z,2.20
2019-04-26T16:57:54.902Z,2.40
2019-04-26T16:59:57.529Z,2.20
2019-04-26T17:01:54.516Z,2.00
2019-04-26T17:03:56.161Z,2.40
2019-04-26T17:06:05.206Z,2.30
2019-04-26T17:08:05.052Z,2.10
2019-04-26T17:10:04.863Z,2.40
2019-04-26T17:12:06.217Z,1.93
2019-04-26T17:14:10.305Z,1.70
2019-04-26T17:16:10.604Z,2.20
2019-04-26T17:18:12.756Z,2.30
2019-04-26T17:20:14.427Z,2.70
2019-04-26T17:22:23.286Z,2.40
2019-04-26T17:24:43.812Z,2.13
2019-04-26T17:26:49.873Z,2.20
2019-04-26T17:28:52.192Z,2.30
2019-04-26T17:30:54.736Z,2.20
2019-04-26T17:32:55.984Z,2.30
2019-04-26T17:34:59.467Z,2.37
2019-04-26T17:37:00.338Z,2.43
2019-04-26T17:39:01.584Z,2.50
2019-04-26T17:41:06.454Z,2.57
2019-04-26T17:43:09.727Z,2.40
2019-04-26T17:45:10.789Z,2.80
2019-04-26T17:47:12.248Z,2.77
2019-04-26T17:49:13.473Z,2.60
2019-04-26T17:51:18.800Z,2.50
2019-04-26T17:53:28.678Z,3.00
2019-04-26T17:55:21.412Z,2.80
2019-04-26T17:57:33.438Z,2.87
2019-04-26T17:59:33.314Z,3.10
2019-04-26T18:01:42.990Z,3.10
2019-04-26T18:03:32.670Z,3.20
2019-04-26T18:05:50.066Z,3.60
2019-04-26T18:07:43.687Z,3.43
2019-04-26T18:09:44.660Z,3.50
2019-04-26T18:11:43.812Z,3.40
2019-04-26T18:13:47.282Z,3.20
2019-04-26T18:15:48.731Z,3.20
2019-04-26T18:18:09.774Z,3.37
2019-04-26T18:20:33.536Z,2.80
2019-04-26T18:22:48.634Z,3.10
2019-04-26T18:24:49.890Z,3.20
2019-04-26T18:26:58.671Z,3.90
2019-04-26T18:28:55.268Z,3.43
2019-04-26T18:30:56.708Z,3.57
2019-04-26T18:32:57.936Z,4.00
2019-04-26T18:34:59.202Z,3.90
2019-04-26T18:37:01.954Z,3.90
2019-04-26T18:39:04.972Z,4.10
2019-04-26T18:41:06.298Z,4.40
2019-04-26T18:43:07.533Z,4.70
2019-04-26T18:45:08.806Z,5.37
2019-04-26T18:47:20.417Z,6.23
2019-04-26T18:49:22.811Z,5.23
2019-04-26T18:51:23.511Z,5.50
2019-04-26T18:54:04.828Z,5.77
2019-04-26T18:56:06.006Z,5.97
2019-04-26T18:58:07.553Z,5.73
2019-04-26T19:00:11.983Z,6.20
2019-04-26T19:02:18.677Z,6.07
2019-04-26T19:04:17.731Z,5.50
2019-04-26T19:06:28.937Z,5.83
2019-04-26T19:08:27.405Z,5.83
2019-04-26T19:10:29.371Z,5.87
2019-04-26T19:12:29.225Z,5.80
2019-04-26T19:14:49.292Z,5.67
2019-04-26T19:17:08.559Z,5.50
2019-04-26T19:19:29.468Z,5.50
2019-04-26T19:21:40.610Z,5.40
2019-04-26T19:23:41.969Z,5.70
2019-04-26T19:25:43.195Z,5.53
2019-04-26T19:27:49.886Z,5.20
2019-04-26T19:29:48.192Z,6.07
2019-04-26T19:31:49.442Z,7.20
2019-04-26T19:33:51.594Z,7.07
2019-04-26T19:35:53.772Z,5.25
2019-04-26T19:37:55.317Z,7.15
2019-04-26T19:39:56.575Z,7.30
2019-04-26T19:41:58.671Z,6.83
2019-04-26T19:44:01.774Z,7.40
2019-04-26T19:46:25.621Z,6.03
2019-04-26T19:48:55.569Z,6.80
2019-04-26T19:51:13.660Z,6.23
2019-04-26T19:53:24.714Z,6.40
2019-04-26T19:55:34.119Z,8.60
2019-04-26T19:57:54.787Z,8.10
2019-04-26T19:59:56.309Z,7.70
2019-04-26T20:01:57.798Z,9.27
2019-04-26T20:03:59.448Z,7.93
2019-04-26T20:06:00.693Z,7.23
2019-04-26T20:08:02.942Z,7.23
2019-04-26T20:10:05.480Z,7.60
2019-04-26T20:12:06.740Z,7.40
2019-04-26T20:14:07.977Z,7.73
2019-04-26T20:16:09.196Z,7.60
2019-04-26T20:18:12.128Z,8.00
2019-04-26T20:20:19.410Z,7.90
2019-04-26T20:22:22.116Z,7.53
2019-04-26T20:24:20.906Z,8.27
2019-04-26T20:26:22.660Z,8.43
2019-04-26T20:28:24.461Z,8.13
2019-04-26T20:30:37.605Z,9.43
2019-04-26T20:32:42.016Z,8.90
2019-04-26T20:34:49.319Z,8.60
2019-04-26T20:36:52.179Z,8.37
2019-04-26T20:38:53.936Z,8.37
2019-04-26T20:40:55.208Z,7.93
2019-04-26T20:43:02.071Z,8.33
2019-04-26T20:44:59.605Z,8.33
2019-04-26T20:47:01.054Z,7.93
2019-04-26T20:49:07.972Z,7.90
2019-04-26T20:51:06.605Z,7.93
2019-04-26T20:53:09.168Z,8.10
2019-04-26T20:55:11.706Z,8.10
2019-04-26T20:57:14.111Z,8.20
2019-04-26T20:59:16.767Z,7.90
2019-04-26T21:01:18.847Z,7.93
2019-04-26T21:03:23.681Z,8.33
2019-04-26T21:05:23.508Z,8.73
2019-04-26T21:07:24.739Z,8.20
2019-04-26T21:09:26.380Z,8.73
2019-04-26T21:11:30.325Z,8.70
2019-04-26T21:13:32.429Z,9.03
2019-04-26T21:15:36.016Z,9.07
2019-04-26T21:17:37.001Z,8.87
2019-04-26T21:19:38.232Z,9.07
2019-04-26T21:21:41.962Z,8.80
2019-04-26T21:23:44.017Z,8.70
2019-04-26T21:26:12.391Z,8.50
2019-04-26T21:28:30.689Z,8.50
2019-04-26T21:30:47.172Z,8.30
2019-04-26T21:33:03.135Z,8.00
2019-04-26T21:35:07.158Z,4.30
2019-04-26T21:37:34.189Z,5.83
2019-04-26T21:39:47.749Z,5.37
2019-04-26T21:41:49.204Z,7.22
2019-04-26T21:43:50.433Z,7.33
2019-04-26T21:45:51.680Z,8.00
2019-04-26T21:47:54.301Z,7.83
2019-04-26T21:49:58.848Z,8.37
2019-04-26T21:51:59.448Z,8.37
2019-04-26T21:54:00.687Z,8.70
2019-04-26T21:56:03.028Z,8.27
2019-04-26T21:58:05.218Z,8.97
2019-04-26T22:00:13.829Z,8.30
2019-04-26T22:02:15.389Z,8.10
2019-04-26T22:04:16.615Z,8.07
2019-04-26T22:06:19.988Z,7.87
2019-04-26T22:08:25.820Z,7.63
2019-04-26T22:10:33.432Z,6.65
2019-04-26T22:12:34.722Z,6.57
2019-04-26T22:14:37.820Z,7.80
2019-04-26T22:16:46.560Z,7.67
2019-04-26T22:18:57.781Z,7.53
2019-04-26T22:21:08.490Z,8.20
2019-04-26T22:23:28.403Z,8.67
2019-04-26T22:25:33.169Z,8.60
2019-04-26T22:27:34.489Z,8.63
2019-04-26T22:29:35.734Z,8.47
2019-04-26T22:31:37.864Z,8.77
2019-04-26T22:33:40.096Z,8.27
2019-04-26T22:35:41.316Z,9.37
2019-04-26T22:37:45.572Z,8.63
2019-04-26T22:39:45.708Z,8.50
2019-04-26T22:41:46.929Z,8.17
2019-04-26T22:43:58.572Z,7.90
2019-04-26T22:46:28.218Z,8.50
2019-04-26T22:48:27.214Z,7.80
2019-04-26T22:50:28.468Z,8.53
2019-04-26T22:52:29.940Z,8.13
2019-04-26T22:54:33.102Z,8.50
2019-04-26T22:56:37.133Z,7.40
2019-04-26T22:58:38.077Z,7.67
2019-04-26T23:00:39.600Z,7.50
2019-04-26T23:02:41.105Z,8.23
2019-04-26T23:04:42.348Z,7.53
2019-04-26T23:06:46.989Z,6.97
2019-04-26T23:08:47.049Z,7.30
2019-04-26T23:10:50.197Z,8.38
2019-04-26T23:13:07.438Z,7.53
2019-04-26T23:15:40.281Z,8.10
2019-04-26T23:18:13.765Z,7.63
2019-04-26T23:20:25.264Z,8.30
2019-04-26T23:22:30.966Z,8.57
2019-04-26T23:24:31.312Z,8.30
2019-04-26T23:26:33.475Z,8.27
2019-04-26T23:28:37.062Z,8.43
2019-04-26T23:30:37.949Z,9.00
2019-04-26T23:32:39.325Z,8.93
2019-04-26T23:34:40.591Z,9.40
2019-04-26T23:36:43.564Z,9.60
2019-04-26T23:38:45.228Z,9.00
2019-04-26T23:40:46.704Z,9.47
2019-04-26T23:42:51.672Z,8.80
2019-04-26T23:44:51.324Z,8.80
2019-04-26T23:46:56.646Z,8.77
2019-04-26T23:48:55.949Z,8.27
2019-04-26T23:50:59.989Z,8.17
2019-04-26T23:53:00.533Z,8.57
2019-04-26T23:55:07.323Z,8.53
2019-04-26T23:57:04.881Z,8.60
2019-04-26T23:59:06.128Z,8.97
